sensor_id;sensor_type;location;lat;lon;timestamp;temperature;humidity
6252;DHT22;3159;52.414;9.784;2023-09-18T00:01:07;22.10;99.90
6252;DHT22;3159;52.414;9.784;2023-09-18T00:03:34;22.00;99.90
6252;DHT22;3159;52.414;9.784;2023-09-18T00:06:02;22.10;99.90
6252;DHT22;3159;52.414;9.784;2023-09-18T00:08:31;22.00;99.90
6252;DHT22;3159;52.414;9.784;2023-09-18T00:10:58;22.00;99.90
6252;DHT22;3159;52.414;9.784;2023-09-18T00:13:26;22.00;99.90
6252;DHT22;3159;52.414;9.784;2023-09-18T00:15:54;22.00;99.90
6252;DHT22;3159;52.414;9.784;2023-09-18T00:18:26;21.90;99.90
6252;DHT22;3159;52.414;9.784;2023-09-18T00:20:53;21.80;99.90
6252;DHT22;3159;52.414;9.784;2023-09-18T00:23:22;21.90;99.90
6252;DHT22;3159;52.414;9.784;2023-09-18T00:25:49;21.80;99.90
6252;DHT22;3159;52.414;9.784;2023-09-18T00:28:16;21.80;99.90
6252;DHT22;3159;52.414;9.784;2023-09-18T00:30:47;21.90;99.90
6252;DHT22;3159;52.414;9.784;2023-09-18T00:33:16;21.90;99.90
6252;DHT22;3159;52.414;9.784;2023-09-18T00:35:45;21.70;99.90
6252;DHT22;3159;52.414;9.784;2023-09-18T00:38:12;21.60;99.90
6252;DHT22;3159;52.414;9.784;2023-09-18T00:40:41;21.60;99.90
6252;DHT22;3159;52.414;9.784;2023-09-18T00:43:08;21.70;99.90
6252;DHT22;3159;52.414;9.784;2023-09-18T00:45:40;21.60;99.90
6252;DHT22;3159;52.414;9.784;2023-09-18T00:48:07;21.50;99.90
6252;DHT22;3159;52.414;9.784;2023-09-18T00:50:35;21.50;99.90
6252;DHT22;3159;52.414;9.784;2023-09-18T00:53:02;21.50;99.90
6252;DHT22;3159;52.414;9.784;2023-09-18T00:55:30;21.40;99.90
6252;DHT22;3159;52.414;9.784;2023-09-18T00:57:59;21.40;99.90
6252;DHT22;3159;52.414;9.784;2023-09-18T01:00:26;20.80;99.90
6252;DHT22;3159;52.414;9.784;2023-09-18T01:02:53;20.80;99.90
6252;DHT22;3159;52.414;9.784;2023-09-18T01:05:20;20.50;99.90
6252;DHT22;3159;52.414;9.784;2023-09-18T01:07:47;20.10;99.90
6252;DHT22;3159;52.414;9.784;2023-09-18T01:10:14;20.20;99.90
6252;DHT22;3159;52.414;9.784;2023-09-18T01:12:46;20.30;99.90
6252;DHT22;3159;52.414;9.784;2023-09-18T01:15:20;20.20;99.90
6252;DHT22;3159;52.414;9.784;2023-09-18T01:17:48;20.40;99.90
6252;DHT22;3159;52.414;9.784;2023-09-18T01:20:16;20.50;99.90
6252;DHT22;3159;52.414;9.784;2023-09-18T01:22:45;20.50;99.90
6252;DHT22;3159;52.414;9.784;2023-09-18T01:25:11;20.70;99.90
6252;DHT22;3159;52.414;9.784;2023-09-18T01:27:38;20.80;99.90
6252;DHT22;3159;52.414;9.784;2023-09-18T01:30:06;20.80;99.90
6252;DHT22;3159;52.414;9.784;2023-09-18T01:32:35;20.60;99.90
6252;DHT22;3159;52.414;9.784;2023-09-18T01:35:04;20.50;99.90
6252;DHT22;3159;52.414;9.784;2023-09-18T01:37:33;20.70;99.90
6252;DHT22;3159;52.414;9.784;2023-09-18T01:40:03;20.80;99.90
6252;DHT22;3159;52.414;9.784;2023-09-18T01:42:32;20.70;99.90
6252;DHT22;3159;52.414;9.784;2023-09-18T01:45:00;20.40;99.90
6252;DHT22;3159;52.414;9.784;2023-09-18T01:47:28;20.60;99.90
6252;DHT22;3159;52.414;9.784;2023-09-18T01:49:55;20.70;99.90
6252;DHT22;3159;52.414;9.784;2023-09-18T01:52:22;20.60;99.90
6252;DHT22;3159;52.414;9.784;2023-09-18T01:54:49;20.60;99.90
6252;DHT22;3159;52.414;9.784;2023-09-18T01:57:17;20.40;99.90
6252;DHT22;3159;52.414;9.784;2023-09-18T01:59:44;20.40;99.90
6252;DHT22;3159;52.414;9.784;2023-09-18T02:02:11;20.20;99.90
6252;DHT22;3159;52.414;9.784;2023-09-18T02:04:38;20.10;99.90
6252;DHT22;3159;52.414;9.784;2023-09-18T02:07:06;20.10;99.90
6252;DHT22;3159;52.414;9.784;2023-09-18T02:09:33;20.10;99.90
6252;DHT22;3159;52.414;9.784;2023-09-18T02:12:00;20.10;99.90
6252;DHT22;3159;52.414;9.784;2023-09-18T02:14:28;20.10;99.90
6252;DHT22;3159;52.414;9.784;2023-09-18T02:16:56;19.80;99.90
6252;DHT22;3159;52.414;9.784;2023-09-18T02:19:24;19.90;99.90
6252;DHT22;3159;52.414;9.784;2023-09-18T02:21:51;20.00;99.90
6252;DHT22;3159;52.414;9.784;2023-09-18T02:24:19;19.80;99.90
6252;DHT22;3159;52.414;9.784;2023-09-18T02:26:45;19.80;99.90
6252;DHT22;3159;52.414;9.784;2023-09-18T02:29:13;19.60;99.90
6252;DHT22;3159;52.414;9.784;2023-09-18T02:31:41;19.90;99.90
6252;DHT22;3159;52.414;9.784;2023-09-18T02:34:09;19.70;99.90
6252;DHT22;3159;52.414;9.784;2023-09-18T02:36:36;19.60;99.90
6252;DHT22;3159;52.414;9.784;2023-09-18T02:39:03;19.90;99.90
6252;DHT22;3159;52.414;9.784;2023-09-18T02:41:31;19.80;99.90
6252;DHT22;3159;52.414;9.784;2023-09-18T02:43:58;19.50;99.90
6252;DHT22;3159;52.414;9.784;2023-09-18T02:46:24;19.70;99.90
6252;DHT22;3159;52.414;9.784;2023-09-18T02:48:53;19.70;99.90
6252;DHT22;3159;52.414;9.784;2023-09-18T02:51:20;19.70;99.90
6252;DHT22;3159;52.414;9.784;2023-09-18T02:53:46;19.60;99.90
6252;DHT22;3159;52.414;9.784;2023-09-18T02:56:13;19.50;99.90
6252;DHT22;3159;52.414;9.784;2023-09-18T02:58:40;19.30;99.90
6252;DHT22;3159;52.414;9.784;2023-09-18T03:01:07;19.50;99.90
6252;DHT22;3159;52.414;9.784;2023-09-18T03:03:34;19.70;99.90
6252;DHT22;3159;52.414;9.784;2023-09-18T03:06:03;19.40;99.90
6252;DHT22;3159;52.414;9.784;2023-09-18T03:08:32;19.40;99.90
6252;DHT22;3159;52.414;9.784;2023-09-18T03:10:59;19.60;99.90
6252;DHT22;3159;52.414;9.784;2023-09-18T03:13:26;19.40;99.90
6252;DHT22;3159;52.414;9.784;2023-09-18T03:15:53;19.50;99.90
6252;DHT22;3159;52.414;9.784;2023-09-18T03:18:20;19.50;99.90
6252;DHT22;3159;52.414;9.784;2023-09-18T03:20:48;19.60;99.90
6252;DHT22;3159;52.414;9.784;2023-09-18T03:23:16;19.40;99.90
6252;DHT22;3159;52.414;9.784;2023-09-18T03:25:43;19.30;99.90
6252;DHT22;3159;52.414;9.784;2023-09-18T03:28:10;19.30;99.90
6252;DHT22;3159;52.414;9.784;2023-09-18T03:30:37;19.40;99.90
6252;DHT22;3159;52.414;9.784;2023-09-18T03:33:04;19.50;99.90
6252;DHT22;3159;52.414;9.784;2023-09-18T03:35:31;19.40;99.90
6252;DHT22;3159;52.414;9.784;2023-09-18T03:37:59;19.60;99.90
6252;DHT22;3159;52.414;9.784;2023-09-18T03:40:29;19.50;99.90
6252;DHT22;3159;52.414;9.784;2023-09-18T03:42:56;19.40;99.90
6252;DHT22;3159;52.414;9.784;2023-09-18T03:45:23;19.50;99.90
6252;DHT22;3159;52.414;9.784;2023-09-18T03:47:50;19.40;99.90
6252;DHT22;3159;52.414;9.784;2023-09-18T03:50:17;19.30;99.90
6252;DHT22;3159;52.414;9.784;2023-09-18T03:52:43;19.30;99.90
6252;DHT22;3159;52.414;9.784;2023-09-18T03:55:10;19.20;99.90
6252;DHT22;3159;52.414;9.784;2023-09-18T03:57:39;19.30;99.90
6252;DHT22;3159;52.414;9.784;2023-09-18T04:00:07;19.30;99.90
6252;DHT22;3159;52.414;9.784;2023-09-18T04:02:35;19.20;99.90
6252;DHT22;3159;52.414;9.784;2023-09-18T04:05:01;19.20;99.90
6252;DHT22;3159;52.414;9.784;2023-09-18T04:07:30;19.20;99.90
6252;DHT22;3159;52.414;9.784;2023-09-18T04:09:57;19.10;99.90
6252;DHT22;3159;52.414;9.784;2023-09-18T04:12:24;19.20;99.90
6252;DHT22;3159;52.414;9.784;2023-09-18T04:14:53;19.20;99.90
6252;DHT22;3159;52.414;9.784;2023-09-18T04:17:21;19.40;99.90
6252;DHT22;3159;52.414;9.784;2023-09-18T04:19:48;19.20;99.90
6252;DHT22;3159;52.414;9.784;2023-09-18T04:22:15;19.30;99.90
6252;DHT22;3159;52.414;9.784;2023-09-18T04:24:42;19.30;99.90
6252;DHT22;3159;52.414;9.784;2023-09-18T04:27:09;19.30;99.90
6252;DHT22;3159;52.414;9.784;2023-09-18T04:29:36;19.20;99.90
6252;DHT22;3159;52.414;9.784;2023-09-18T04:32:06;19.00;99.90
6252;DHT22;3159;52.414;9.784;2023-09-18T04:34:33;18.90;99.90
6252;DHT22;3159;52.414;9.784;2023-09-18T04:37:00;19.00;99.90
6252;DHT22;3159;52.414;9.784;2023-09-18T04:39:29;19.00;99.90
6252;DHT22;3159;52.414;9.784;2023-09-18T04:42:00;19.00;99.90
6252;DHT22;3159;52.414;9.784;2023-09-18T04:44:29;18.90;99.90
6252;DHT22;3159;52.414;9.784;2023-09-18T04:46:56;18.80;99.90
6252;DHT22;3159;52.414;9.784;2023-09-18T04:49:26;19.00;99.90
6252;DHT22;3159;52.414;9.784;2023-09-18T04:51:54;19.00;99.90
6252;DHT22;3159;52.414;9.784;2023-09-18T04:54:21;19.00;99.90
6252;DHT22;3159;52.414;9.784;2023-09-18T04:56:48;19.20;99.90
6252;DHT22;3159;52.414;9.784;2023-09-18T04:59:15;19.10;99.90
6252;DHT22;3159;52.414;9.784;2023-09-18T05:01:42;19.10;99.90
6252;DHT22;3159;52.414;9.784;2023-09-18T05:04:09;19.00;99.90
6252;DHT22;3159;52.414;9.784;2023-09-18T05:06:38;18.90;99.90
6252;DHT22;3159;52.414;9.784;2023-09-18T05:09:07;18.90;99.90
6252;DHT22;3159;52.414;9.784;2023-09-18T05:11:34;18.80;99.90
6252;DHT22;3159;52.414;9.784;2023-09-18T05:14:01;18.80;99.90
6252;DHT22;3159;52.414;9.784;2023-09-18T05:16:28;18.80;99.90
6252;DHT22;3159;52.414;9.784;2023-09-18T05:18:55;18.80;99.90
6252;DHT22;3159;52.414;9.784;2023-09-18T05:21:22;18.70;99.90
6252;DHT22;3159;52.414;9.784;2023-09-18T05:23:52;18.80;99.90
6252;DHT22;3159;52.414;9.784;2023-09-18T05:26:19;18.80;99.90
6252;DHT22;3159;52.414;9.784;2023-09-18T05:28:48;18.80;99.90
6252;DHT22;3159;52.414;9.784;2023-09-18T05:31:16;18.80;99.90
6252;DHT22;3159;52.414;9.784;2023-09-18T05:33:43;18.90;99.90
6252;DHT22;3159;52.414;9.784;2023-09-18T05:36:10;18.90;99.90
6252;DHT22;3159;52.414;9.784;2023-09-18T05:38:39;18.90;99.90
6252;DHT22;3159;52.414;9.784;2023-09-18T05:41:07;18.70;99.90
6252;DHT22;3159;52.414;9.784;2023-09-18T05:43:35;18.60;99.90
6252;DHT22;3159;52.414;9.784;2023-09-18T05:46:01;18.90;99.90
6252;DHT22;3159;52.414;9.784;2023-09-18T05:48:28;18.90;99.90
6252;DHT22;3159;52.414;9.784;2023-09-18T05:50:55;18.90;99.90
6252;DHT22;3159;52.414;9.784;2023-09-18T05:53:22;18.90;99.90
6252;DHT22;3159;52.414;9.784;2023-09-18T05:55:49;18.90;99.90
6252;DHT22;3159;52.414;9.784;2023-09-18T05:58:18;18.90;99.90
6252;DHT22;3159;52.414;9.784;2023-09-18T06:00:48;19.00;99.90
6252;DHT22;3159;52.414;9.784;2023-09-18T06:03:16;19.00;99.90
6252;DHT22;3159;52.414;9.784;2023-09-18T06:05:45;19.10;99.90
6252;DHT22;3159;52.414;9.784;2023-09-18T06:08:12;19.00;99.90
6252;DHT22;3159;52.414;9.784;2023-09-18T06:10:39;19.10;99.90
6252;DHT22;3159;52.414;9.784;2023-09-18T06:13:06;19.20;99.90
6252;DHT22;3159;52.414;9.784;2023-09-18T06:15:35;19.20;99.90
6252;DHT22;3159;52.414;9.784;2023-09-18T06:18:02;19.30;99.90
6252;DHT22;3159;52.414;9.784;2023-09-18T06:20:30;19.30;99.90
6252;DHT22;3159;52.414;9.784;2023-09-18T06:22:57;19.30;99.90
6252;DHT22;3159;52.414;9.784;2023-09-18T06:25:24;19.50;99.90
6252;DHT22;3159;52.414;9.784;2023-09-18T06:27:51;19.40;99.90
6252;DHT22;3159;52.414;9.784;2023-09-18T06:30:18;19.50;99.90
6252;DHT22;3159;52.414;9.784;2023-09-18T06:32:46;19.50;99.90
6252;DHT22;3159;52.414;9.784;2023-09-18T06:35:13;19.50;99.90
6252;DHT22;3159;52.414;9.784;2023-09-18T06:37:40;19.60;99.90
6252;DHT22;3159;52.414;9.784;2023-09-18T06:40:08;19.70;99.90
6252;DHT22;3159;52.414;9.784;2023-09-18T06:42:35;19.70;99.90
6252;DHT22;3159;52.414;9.784;2023-09-18T06:45:05;19.60;99.90
6252;DHT22;3159;52.414;9.784;2023-09-18T06:47:33;19.60;99.90
6252;DHT22;3159;52.414;9.784;2023-09-18T06:50:02;19.70;99.90
6252;DHT22;3159;52.414;9.784;2023-09-18T06:52:30;19.80;99.90
6252;DHT22;3159;52.414;9.784;2023-09-18T06:54:57;19.80;99.90
6252;DHT22;3159;52.414;9.784;2023-09-18T06:57:25;19.80;99.90
6252;DHT22;3159;52.414;9.784;2023-09-18T06:59:53;19.90;99.90
6252;DHT22;3159;52.414;9.784;2023-09-18T07:02:20;19.90;99.90
6252;DHT22;3159;52.414;9.784;2023-09-18T07:04:47;20.00;99.90
6252;DHT22;3159;52.414;9.784;2023-09-18T07:07:16;20.00;99.90
6252;DHT22;3159;52.414;9.784;2023-09-18T07:09:49;20.00;99.90
6252;DHT22;3159;52.414;9.784;2023-09-18T07:12:16;20.10;99.90
6252;DHT22;3159;52.414;9.784;2023-09-18T07:14:45;20.10;99.90
6252;DHT22;3159;52.414;9.784;2023-09-18T07:17:12;20.30;99.90
6252;DHT22;3159;52.414;9.784;2023-09-18T07:19:39;20.30;99.90
6252;DHT22;3159;52.414;9.784;2023-09-18T07:22:06;20.40;99.90
6252;DHT22;3159;52.414;9.784;2023-09-18T07:24:34;20.50;99.90
6252;DHT22;3159;52.414;9.784;2023-09-18T07:27:02;20.60;99.90
6252;DHT22;3159;52.414;9.784;2023-09-18T07:29:29;20.70;99.90
6252;DHT22;3159;52.414;9.784;2023-09-18T07:31:57;20.80;99.90
6252;DHT22;3159;52.414;9.784;2023-09-18T07:34:24;20.80;99.90
6252;DHT22;3159;52.414;9.784;2023-09-18T07:36:51;20.80;99.90
6252;DHT22;3159;52.414;9.784;2023-09-18T07:39:20;20.90;99.90
6252;DHT22;3159;52.414;9.784;2023-09-18T07:41:48;21.00;99.90
6252;DHT22;3159;52.414;9.784;2023-09-18T07:44:19;21.10;99.90
6252;DHT22;3159;52.414;9.784;2023-09-18T07:46:46;21.20;99.90
6252;DHT22;3159;52.414;9.784;2023-09-18T07:49:13;21.30;99.90
6252;DHT22;3159;52.414;9.784;2023-09-18T07:51:41;21.50;99.90
6252;DHT22;3159;52.414;9.784;2023-09-18T07:54:08;21.60;99.90
6252;DHT22;3159;52.414;9.784;2023-09-18T07:56:36;21.60;99.90
6252;DHT22;3159;52.414;9.784;2023-09-18T07:59:04;21.60;99.90
6252;DHT22;3159;52.414;9.784;2023-09-18T08:01:31;21.70;99.90
6252;DHT22;3159;52.414;9.784;2023-09-18T08:03:59;21.70;99.90
6252;DHT22;3159;52.414;9.784;2023-09-18T08:06:26;22.00;99.90
6252;DHT22;3159;52.414;9.784;2023-09-18T08:08:54;22.00;99.90
6252;DHT22;3159;52.414;9.784;2023-09-18T08:11:21;22.00;99.90
6252;DHT22;3159;52.414;9.784;2023-09-18T08:13:48;21.90;99.90
6252;DHT22;3159;52.414;9.784;2023-09-18T08:16:16;21.90;99.90
6252;DHT22;3159;52.414;9.784;2023-09-18T08:18:43;22.10;99.90
6252;DHT22;3159;52.414;9.784;2023-09-18T08:21:10;22.20;99.90
6252;DHT22;3159;52.414;9.784;2023-09-18T08:23:39;22.30;99.90
6252;DHT22;3159;52.414;9.784;2023-09-18T08:26:06;22.40;99.90
6252;DHT22;3159;52.414;9.784;2023-09-18T08:28:34;22.50;99.90
6252;DHT22;3159;52.414;9.784;2023-09-18T08:31:04;22.50;99.90
6252;DHT22;3159;52.414;9.784;2023-09-18T08:33:32;22.40;99.90
6252;DHT22;3159;52.414;9.784;2023-09-18T08:36:00;22.30;99.90
6252;DHT22;3159;52.414;9.784;2023-09-18T08:38:26;22.40;99.90
6252;DHT22;3159;52.414;9.784;2023-09-18T08:40:54;22.40;99.90
6252;DHT22;3159;52.414;9.784;2023-09-18T08:43:22;22.50;99.90
6252;DHT22;3159;52.414;9.784;2023-09-18T08:45:52;22.50;99.90
6252;DHT22;3159;52.414;9.784;2023-09-18T08:48:19;22.50;99.90
6252;DHT22;3159;52.414;9.784;2023-09-18T08:50:48;22.60;99.90
6252;DHT22;3159;52.414;9.784;2023-09-18T08:53:16;22.70;99.90
6252;DHT22;3159;52.414;9.784;2023-09-18T08:55:43;22.60;99.90
6252;DHT22;3159;52.414;9.784;2023-09-18T08:58:11;22.60;99.90
6252;DHT22;3159;52.414;9.784;2023-09-18T09:00:38;22.80;99.90
6252;DHT22;3159;52.414;9.784;2023-09-18T09:03:05;22.80;99.90
6252;DHT22;3159;52.414;9.784;2023-09-18T09:05:32;22.80;99.90
6252;DHT22;3159;52.414;9.784;2023-09-18T09:08:01;22.80;99.90
6252;DHT22;3159;52.414;9.784;2023-09-18T09:10:28;22.90;99.90
6252;DHT22;3159;52.414;9.784;2023-09-18T09:12:56;23.00;99.90
6252;DHT22;3159;52.414;9.784;2023-09-18T09:15:26;23.10;99.90
6252;DHT22;3159;52.414;9.784;2023-09-18T09:18:04;23.10;99.90
6252;DHT22;3159;52.414;9.784;2023-09-18T09:20:32;23.10;99.90
6252;DHT22;3159;52.414;9.784;2023-09-18T09:23:03;23.10;99.90
6252;DHT22;3159;52.414;9.784;2023-09-18T09:25:31;23.20;99.90
6252;DHT22;3159;52.414;9.784;2023-09-18T09:27:59;23.20;99.90
6252;DHT22;3159;52.414;9.784;2023-09-18T09:30:27;23.20;99.90
6252;DHT22;3159;52.414;9.784;2023-09-18T09:32:56;23.10;99.90
6252;DHT22;3159;52.414;9.784;2023-09-18T09:35:26;23.20;99.90
6252;DHT22;3159;52.414;9.784;2023-09-18T09:37:57;23.20;99.90
6252;DHT22;3159;52.414;9.784;2023-09-18T09:40:27;23.20;99.90
6252;DHT22;3159;52.414;9.784;2023-09-18T09:42:55;23.20;99.90
6252;DHT22;3159;52.414;9.784;2023-09-18T09:45:26;23.30;99.90
6252;DHT22;3159;52.414;9.784;2023-09-18T09:47:55;23.30;99.90
6252;DHT22;3159;52.414;9.784;2023-09-18T09:50:23;23.30;99.90
6252;DHT22;3159;52.414;9.784;2023-09-18T09:52:53;23.30;99.90
6252;DHT22;3159;52.414;9.784;2023-09-18T09:55:22;23.40;99.90
6252;DHT22;3159;52.414;9.784;2023-09-18T09:57:54;23.30;99.90
6252;DHT22;3159;52.414;9.784;2023-09-18T10:00:23;23.20;99.90
6252;DHT22;3159;52.414;9.784;2023-09-18T10:03:00;23.20;99.90
6252;DHT22;3159;52.414;9.784;2023-09-18T10:05:30;23.30;99.90
6252;DHT22;3159;52.414;9.784;2023-09-18T10:08:01;23.30;99.90
6252;DHT22;3159;52.414;9.784;2023-09-18T10:10:31;23.30;99.90
6252;DHT22;3159;52.414;9.784;2023-09-18T10:13:07;23.20;99.90
6252;DHT22;3159;52.414;9.784;2023-09-18T10:15:35;23.00;99.90
6252;DHT22;3159;52.414;9.784;2023-09-18T10:18:15;23.20;99.90
6252;DHT22;3159;52.414;9.784;2023-09-18T10:20:44;23.30;99.90
6252;DHT22;3159;52.414;9.784;2023-09-18T10:23:23;23.40;99.90
6252;DHT22;3159;52.414;9.784;2023-09-18T10:25:55;23.50;99.90
6252;DHT22;3159;52.414;9.784;2023-09-18T10:28:33;23.50;99.90
6252;DHT22;3159;52.414;9.784;2023-09-18T10:31:02;23.40;99.90
6252;DHT22;3159;52.414;9.784;2023-09-18T10:33:30;23.40;99.90
6252;DHT22;3159;52.414;9.784;2023-09-18T10:35:58;23.40;99.90
6252;DHT22;3159;52.414;9.784;2023-09-18T10:38:28;23.30;99.90
6252;DHT22;3159;52.414;9.784;2023-09-18T10:40:57;23.20;99.90
6252;DHT22;3159;52.414;9.784;2023-09-18T10:43:25;23.40;99.90
6252;DHT22;3159;52.414;9.784;2023-09-18T10:45:54;23.40;99.90
6252;DHT22;3159;52.414;9.784;2023-09-18T10:48:22;23.70;99.90
6252;DHT22;3159;52.414;9.784;2023-09-18T10:50:53;23.40;99.90
6252;DHT22;3159;52.414;9.784;2023-09-18T10:53:20;23.50;99.90
6252;DHT22;3159;52.414;9.784;2023-09-18T10:55:49;23.60;99.90
6252;DHT22;3159;52.414;9.784;2023-09-18T10:58:23;23.40;99.90
6252;DHT22;3159;52.414;9.784;2023-09-18T11:00:54;23.50;99.90
6252;DHT22;3159;52.414;9.784;2023-09-18T11:03:23;23.40;99.90
6252;DHT22;3159;52.414;9.784;2023-09-18T11:06:03;23.60;99.90
6252;DHT22;3159;52.414;9.784;2023-09-18T11:08:32;23.50;99.90
6252;DHT22;3159;52.414;9.784;2023-09-18T11:11:06;23.40;99.90
6252;DHT22;3159;52.414;9.784;2023-09-18T11:13:40;23.50;99.90
6252;DHT22;3159;52.414;9.784;2023-09-18T11:16:17;23.60;99.90
6252;DHT22;3159;52.414;9.784;2023-09-18T11:18:47;23.60;99.90
6252;DHT22;3159;52.414;9.784;2023-09-18T11:21:15;23.70;99.90
6252;DHT22;3159;52.414;9.784;2023-09-18T11:23:44;23.70;99.90
6252;DHT22;3159;52.414;9.784;2023-09-18T11:26:11;23.50;99.90
6252;DHT22;3159;52.414;9.784;2023-09-18T11:28:42;23.60;99.90
6252;DHT22;3159;52.414;9.784;2023-09-18T11:31:09;23.60;99.90
6252;DHT22;3159;52.414;9.784;2023-09-18T11:33:40;23.60;99.90
6252;DHT22;3159;52.414;9.784;2023-09-18T11:36:11;23.70;99.90
6252;DHT22;3159;52.414;9.784;2023-09-18T11:38:53;23.60;99.90
6252;DHT22;3159;52.414;9.784;2023-09-18T11:41:23;23.60;99.90
6252;DHT22;3159;52.414;9.784;2023-09-18T11:43:51;23.60;99.90
6252;DHT22;3159;52.414;9.784;2023-09-18T11:46:19;23.60;99.90
6252;DHT22;3159;52.414;9.784;2023-09-18T11:48:49;23.70;99.90
6252;DHT22;3159;52.414;9.784;2023-09-18T11:51:23;23.70;99.90
6252;DHT22;3159;52.414;9.784;2023-09-18T11:53:54;23.80;99.90
6252;DHT22;3159;52.414;9.784;2023-09-18T11:56:21;23.80;99.90
6252;DHT22;3159;52.414;9.784;2023-09-18T11:58:49;23.80;99.90
6252;DHT22;3159;52.414;9.784;2023-09-18T12:01:18;23.70;99.90
6252;DHT22;3159;52.414;9.784;2023-09-18T12:03:45;23.60;99.90
6252;DHT22;3159;52.414;9.784;2023-09-18T12:06:14;23.60;99.90
6252;DHT22;3159;52.414;9.784;2023-09-18T12:08:41;23.50;99.90
6252;DHT22;3159;52.414;9.784;2023-09-18T12:11:08;23.60;99.90
6252;DHT22;3159;52.414;9.784;2023-09-18T12:13:35;23.60;99.90
6252;DHT22;3159;52.414;9.784;2023-09-18T12:16:04;23.50;99.90
6252;DHT22;3159;52.414;9.784;2023-09-18T12:18:32;23.60;99.90
6252;DHT22;3159;52.414;9.784;2023-09-18T12:21:01;23.60;99.90
6252;DHT22;3159;52.414;9.784;2023-09-18T12:23:39;23.50;99.90
6252;DHT22;3159;52.414;9.784;2023-09-18T12:26:10;23.70;99.90
6252;DHT22;3159;52.414;9.784;2023-09-18T12:28:38;23.60;99.90
6252;DHT22;3159;52.414;9.784;2023-09-18T12:31:06;23.70;99.90
6252;DHT22;3159;52.414;9.784;2023-09-18T12:33:37;23.70;99.90
6252;DHT22;3159;52.414;9.784;2023-09-18T12:36:05;23.70;99.90
6252;DHT22;3159;52.414;9.784;2023-09-18T12:38:33;23.80;99.90
6252;DHT22;3159;52.414;9.784;2023-09-18T12:41:02;23.80;99.90
6252;DHT22;3159;52.414;9.784;2023-09-18T12:43:34;23.80;99.90
6252;DHT22;3159;52.414;9.784;2023-09-18T12:46:02;23.70;99.90
6252;DHT22;3159;52.414;9.784;2023-09-18T12:48:31;23.70;99.90
6252;DHT22;3159;52.414;9.784;2023-09-18T12:51:03;23.60;99.90
6252;DHT22;3159;52.414;9.784;2023-09-18T12:53:30;23.60;99.90
6252;DHT22;3159;52.414;9.784;2023-09-18T12:56:06;23.50;99.90
6252;DHT22;3159;52.414;9.784;2023-09-18T12:58:34;23.60;99.90
6252;DHT22;3159;52.414;9.784;2023-09-18T13:01:05;23.40;99.90
6252;DHT22;3159;52.414;9.784;2023-09-18T13:03:36;23.50;99.90
6252;DHT22;3159;52.414;9.784;2023-09-18T13:06:09;23.40;99.90
6252;DHT22;3159;52.414;9.784;2023-09-18T13:08:36;23.30;99.90
6252;DHT22;3159;52.414;9.784;2023-09-18T13:11:03;23.40;99.90
6252;DHT22;3159;52.414;9.784;2023-09-18T13:13:31;23.40;99.90
6252;DHT22;3159;52.414;9.784;2023-09-18T13:15:59;23.30;99.90
6252;DHT22;3159;52.414;9.784;2023-09-18T13:18:26;23.40;99.90
6252;DHT22;3159;52.414;9.784;2023-09-18T13:20:54;23.40;99.90
6252;DHT22;3159;52.414;9.784;2023-09-18T13:23:27;23.40;99.90
6252;DHT22;3159;52.414;9.784;2023-09-18T13:25:59;23.40;99.90
6252;DHT22;3159;52.414;9.784;2023-09-18T13:28:26;23.40;99.90
6252;DHT22;3159;52.414;9.784;2023-09-18T13:30:58;23.30;99.90
6252;DHT22;3159;52.414;9.784;2023-09-18T13:33:25;23.30;99.90
6252;DHT22;3159;52.414;9.784;2023-09-18T13:35:53;23.40;99.90
6252;DHT22;3159;52.414;9.784;2023-09-18T13:38:21;23.40;99.90
6252;DHT22;3159;52.414;9.784;2023-09-18T13:40:49;23.50;99.90
6252;DHT22;3159;52.414;9.784;2023-09-18T13:43:17;23.40;99.90
6252;DHT22;3159;52.414;9.784;2023-09-18T13:45:47;23.40;99.90
6252;DHT22;3159;52.414;9.784;2023-09-18T13:48:18;23.40;99.90
6252;DHT22;3159;52.414;9.784;2023-09-18T13:50:47;23.30;99.90
6252;DHT22;3159;52.414;9.784;2023-09-18T13:53:14;23.40;99.90
6252;DHT22;3159;52.414;9.784;2023-09-18T13:55:41;23.30;99.90
6252;DHT22;3159;52.414;9.784;2023-09-18T13:58:08;23.40;99.90
6252;DHT22;3159;52.414;9.784;2023-09-18T14:00:36;23.60;99.90
6252;DHT22;3159;52.414;9.784;2023-09-18T14:03:03;23.60;99.90
6252;DHT22;3159;52.414;9.784;2023-09-18T14:05:32;23.70;99.90
6252;DHT22;3159;52.414;9.784;2023-09-18T14:08:00;23.60;99.90
6252;DHT22;3159;52.414;9.784;2023-09-18T14:10:28;23.50;99.90
6252;DHT22;3159;52.414;9.784;2023-09-18T14:12:55;23.60;99.90
6252;DHT22;3159;52.414;9.784;2023-09-18T14:15:23;23.60;99.90
6252;DHT22;3159;52.414;9.784;2023-09-18T14:17:50;23.70;99.90
6252;DHT22;3159;52.414;9.784;2023-09-18T14:20:17;23.50;99.90
6252;DHT22;3159;52.414;9.784;2023-09-18T14:22:47;23.40;99.90
6252;DHT22;3159;52.414;9.784;2023-09-18T14:25:15;23.40;99.90
6252;DHT22;3159;52.414;9.784;2023-09-18T14:27:42;23.40;99.90
6252;DHT22;3159;52.414;9.784;2023-09-18T14:30:11;23.40;99.90
6252;DHT22;3159;52.414;9.784;2023-09-18T14:32:39;23.40;99.90
6252;DHT22;3159;52.414;9.784;2023-09-18T14:35:07;23.40;99.90
6252;DHT22;3159;52.414;9.784;2023-09-18T14:37:34;23.50;99.90
6252;DHT22;3159;52.414;9.784;2023-09-18T14:40:04;23.50;99.90
6252;DHT22;3159;52.414;9.784;2023-09-18T14:42:31;23.50;99.90
6252;DHT22;3159;52.414;9.784;2023-09-18T14:44:58;23.40;99.90
6252;DHT22;3159;52.414;9.784;2023-09-18T14:47:26;23.40;99.90
6252;DHT22;3159;52.414;9.784;2023-09-18T14:49:53;23.50;99.90
6252;DHT22;3159;52.414;9.784;2023-09-18T14:52:20;23.40;99.90
6252;DHT22;3159;52.414;9.784;2023-09-18T14:54:50;23.30;99.90
6252;DHT22;3159;52.414;9.784;2023-09-18T14:57:19;23.40;99.90
6252;DHT22;3159;52.414;9.784;2023-09-18T14:59:46;23.50;99.90
6252;DHT22;3159;52.414;9.784;2023-09-18T15:02:14;23.40;99.90
6252;DHT22;3159;52.414;9.784;2023-09-18T15:04:43;23.40;99.90
6252;DHT22;3159;52.414;9.784;2023-09-18T15:07:10;23.30;99.90
6252;DHT22;3159;52.414;9.784;2023-09-18T15:09:38;23.40;99.90
6252;DHT22;3159;52.414;9.784;2023-09-18T15:12:05;23.20;99.90
6252;DHT22;3159;52.414;9.784;2023-09-18T15:14:35;23.00;99.90
6252;DHT22;3159;52.414;9.784;2023-09-18T15:17:02;23.00;99.90
6252;DHT22;3159;52.414;9.784;2023-09-18T15:19:29;23.00;99.90
6252;DHT22;3159;52.414;9.784;2023-09-18T15:21:56;23.00;99.90
6252;DHT22;3159;52.414;9.784;2023-09-18T15:24:23;23.20;99.90
6252;DHT22;3159;52.414;9.784;2023-09-18T15:26:50;23.10;99.90
6252;DHT22;3159;52.414;9.784;2023-09-18T15:29:17;23.20;99.90
6252;DHT22;3159;52.414;9.784;2023-09-18T15:31:45;23.10;99.90
6252;DHT22;3159;52.414;9.784;2023-09-18T15:34:13;23.10;99.90
6252;DHT22;3159;52.414;9.784;2023-09-18T15:36:42;23.20;99.90
6252;DHT22;3159;52.414;9.784;2023-09-18T15:39:09;23.10;99.90
6252;DHT22;3159;52.414;9.784;2023-09-18T15:41:36;23.20;99.90
6252;DHT22;3159;52.414;9.784;2023-09-18T15:44:04;23.20;99.90
6252;DHT22;3159;52.414;9.784;2023-09-18T15:46:32;23.30;99.90
6252;DHT22;3159;52.414;9.784;2023-09-18T15:49:01;23.20;99.90
6252;DHT22;3159;52.414;9.784;2023-09-18T15:51:29;23.20;99.90
6252;DHT22;3159;52.414;9.784;2023-09-18T15:53:56;22.90;99.90
6252;DHT22;3159;52.414;9.784;2023-09-18T15:56:23;22.90;99.90
6252;DHT22;3159;52.414;9.784;2023-09-18T15:58:50;22.80;99.90
6252;DHT22;3159;52.414;9.784;2023-09-18T16:01:17;23.00;99.90
6252;DHT22;3159;52.414;9.784;2023-09-18T16:03:44;22.90;99.90
6252;DHT22;3159;52.414;9.784;2023-09-18T16:06:14;23.00;99.90
6252;DHT22;3159;52.414;9.784;2023-09-18T16:08:43;22.90;99.90